Airport METAR Information

LTBA 240550Z 01005KT 9999 FEW040 07/06 Q1024 NOSIG RMK RWY23 36003KT

VATSIM Livefeed

Card image cap

ATC Bookings

No position booked

Card image cap

Active ATC

No controllers online

Blog

Read our latest news and get to know us better.